Time;durP1;ratioP1;P1;durP2;ratioP2;P2;SDS_P1;SDS_P2;PMS_P1;PMS_P2;Temp;Humidity;BMP_temperature;BMP_pressure;BME280_temperature;BME280_humidity;BME280_pressure;Samples;Min_cycle;Max_cycle;Signal;HPM_P1;HPM_P2
2021/12/14 00:02:41;;;;;;;11.00;5.47;;;7.50;99.90;;;;;;10439600;28;20056;-62
2021/12/14 00:07:43;;;;;;;11.65;4.80;;;7.50;99.90;;;;;;10438693;28;20068;-61
2021/12/14 00:12:59;;;;;;;14.63;5.70;;;7.50;99.90;;;;;;10456953;28;20083;-62
2021/12/14 00:18:08;;;;;;;11.85;5.95;;;7.50;99.90;;;;;;10441820;28;20083;-63
2021/12/14 00:28:23;;;;;;;13.80;6.18;;;7.60;99.90;;;;;;10442134;28;20122;-63
2021/12/14 00:33:30;;;;;;;13.10;6.13;;;7.50;99.90;;;;;;10457956;28;20100;-63
2021/12/14 00:38:35;;;;;;;13.77;5.75;;;7.50;99.90;;;;;;10450524;28;20098;-63
2021/12/14 00:43:37;;;;;;;14.13;6.82;;;7.50;99.90;;;;;;10449117;28;20052;-63
2021/12/14 00:48:40;;;;;;;16.00;8.00;;;7.50;99.90;;;;;;10437121;28;20091;-63
2021/12/14 00:53:42;;;;;;;17.85;8.55;;;7.50;99.90;;;;;;10445881;28;20053;-63
2021/12/14 00:58:45;;;;;;;14.07;8.30;;;7.40;99.90;;;;;;10446755;28;20133;-63
2021/12/14 01:03:53;;;;;;;16.30;7.93;;;7.40;99.90;;;;;;10455416;28;20110;-63
2021/12/14 01:08:56;;;;;;;18.52;8.05;;;7.40;99.90;;;;;;10455995;28;20241;-63
2021/12/14 01:14:13;;;;;;;19.77;7.95;;;7.40;99.90;;;;;;10443917;28;20083;-63
2021/12/14 01:19:23;;;;;;;20.02;7.68;;;7.40;99.90;;;;;;10444158;28;20416;-63
2021/12/14 01:25:14;;;;;;;14.55;6.72;;;7.40;99.90;;;;;;10451434;28;20056;-63
2021/12/14 01:29:56;;;;;;;18.52;7.07;;;7.50;99.90;;;;;;10441805;28;20113;-63
2021/12/14 01:34:58;;;;;;;13.30;6.18;;;7.50;99.90;;;;;;10446525;28;20048;-63
2021/12/14 01:40:06;;;;;;;13.32;6.38;;;7.50;99.90;;;;;;10457276;28;20073;-63
2021/12/14 01:45:17;;;;;;;9.18;5.22;;;7.50;99.90;;;;;;10444486;28;20052;-63
2021/12/14 01:50:29;;;;;;;16.38;6.10;;;7.50;99.90;;;;;;10436489;28;20075;-63
2021/12/14 01:55:35;;;;;;;11.52;5.00;;;7.50;99.90;;;;;;10451967;28;20072;-63
2021/12/14 02:00:47;;;;;;;10.60;5.20;;;7.50;99.90;;;;;;10457290;28;20052;-63
2021/12/14 02:05:51;;;;;;;10.50;4.70;;;7.50;99.90;;;;;;10442721;28;20398;-63
2021/12/14 02:10:55;;;;;;;10.48;5.18;;;7.50;99.90;;;;;;10448628;28;20461;-63
2021/12/14 02:15:58;;;;;;;13.32;5.80;;;7.50;99.90;;;;;;10439406;28;20118;-63
2021/12/14 02:21:20;;;;;;;12.98;6.03;;;7.50;99.90;;;;;;10432562;28;20184;-63
2021/12/14 02:26:26;;;;;;;14.40;6.68;;;7.50;99.90;;;;;;10434314;28;20077;-63
2021/12/14 02:37:45;;;;;;;12.93;6.65;;;7.50;99.90;;;;;;10437437;28;20041;-63
2021/12/14 02:42:50;;;;;;;16.40;7.07;;;7.50;99.90;;;;;;10425597;28;20103;-63
2021/12/14 02:47:53;;;;;;;17.85;7.75;;;7.40;99.90;;;;;;10442261;28;20076;-64
2021/12/14 02:52:54;;;;;;;16.35;8.05;;;7.50;99.90;;;;;;10443596;28;20040;-63
2021/12/14 02:57:59;;;;;;;16.42;7.07;;;7.50;99.90;;;;;;10454127;28;20110;-63
2021/12/14 03:03:03;;;;;;;15.27;7.18;;;7.50;99.90;;;;;;10448101;28;20069;-63
2021/12/14 03:08:24;;;;;;;14.65;8.07;;;7.50;99.90;;;;;;10451807;28;20102;-63
2021/12/14 03:13:32;;;;;;;13.65;7.70;;;7.50;99.90;;;;;;10452265;28;20056;-63
2021/12/14 03:18:38;;;;;;;14.13;6.80;;;7.50;99.90;;;;;;10438506;28;20186;-63
2021/12/14 03:23:48;;;;;;;19.80;8.77;;;7.50;99.90;;;;;;10449336;28;20048;-63
2021/12/14 03:28:53;;;;;;;15.50;7.90;;;7.50;99.90;;;;;;10457551;28;20099;-63
2021/12/14 03:34:10;;;;;;;13.90;7.30;;;7.50;99.90;;;;;;10434730;28;20171;-63
2021/12/14 03:39:19;;;;;;;18.67;7.25;;;7.50;99.90;;;;;;10455155;28;20495;-62
2021/12/14 03:44:33;;;;;;;16.27;7.63;;;7.50;99.90;;;;;;10444565;28;20396;-64
2021/12/14 03:49:47;;;;;;;17.63;7.75;;;7.50;99.90;;;;;;10444883;28;20123;-64
2021/12/14 03:54:50;;;;;;;18.98;8.02;;;7.50;99.90;;;;;;10456512;28;20394;-63
2021/12/14 03:59:52;;;;;;;15.50;7.45;;;7.50;99.90;;;;;;10443741;28;20081;-63
2021/12/14 04:05:03;;;;;;;23.98;8.50;;;7.60;99.90;;;;;;10453642;28;20127;-63
2021/12/14 04:10:10;;;;;;;20.90;8.27;;;7.50;99.90;;;;;;10443133;28;20556;-63
2021/12/14 04:15:12;;;;;;;17.40;7.85;;;7.50;99.90;;;;;;10441908;28;20690;-63
2021/12/14 04:20:28;;;;;;;20.23;9.73;;;7.50;99.90;;;;;;10446479;28;20691;-63
2021/12/14 04:25:33;;;;;;;20.20;8.52;;;7.40;99.90;;;;;;10427940;28;20472;-62
2021/12/14 04:30:36;;;;;;;20.88;8.90;;;7.50;99.90;;;;;;10445498;28;20124;-61
2021/12/14 04:35:40;;;;;;;23.63;9.00;;;7.50;99.90;;;;;;10452522;28;20586;-62
2021/12/14 04:56:46;;;;;;;25.33;11.70;;;7.40;99.90;;;;;;10460354;28;20158;-61
2021/12/14 05:01:50;;;;;;;28.13;11.65;;;7.40;99.90;;;;;;10446837;28;20079;-62
2021/12/14 05:07:02;;;;;;;27.85;13.23;;;7.40;99.90;;;;;;10447458;28;20438;-61
2021/12/14 05:12:07;;;;;;;29.52;11.90;;;7.30;99.90;;;;;;10427661;28;20056;-61
2021/12/14 05:17:32;;;;;;;25.52;11.25;;;7.40;99.90;;;;;;10434808;28;20127;-61
2021/12/14 05:22:36;;;;;;;39.45;15.10;;;7.40;99.90;;;;;;10441822;28;20041;-61
2021/12/14 05:27:46;;;;;;;39.30;13.95;;;7.40;99.90;;;;;;10456652;28;20106;-61
2021/12/14 05:32:48;;;;;;;27.08;12.00;;;7.40;99.90;;;;;;10445184;28;20103;-61
2021/12/14 05:37:53;;;;;;;29.65;12.05;;;7.40;99.90;;;;;;10438335;28;20495;-61
2021/12/14 05:43:08;;;;;;;24.90;11.75;;;7.50;99.90;;;;;;10438319;28;20466;-61
2021/12/14 05:48:15;;;;;;;33.72;12.82;;;7.50;99.90;;;;;;10434699;28;20103;-61
2021/12/14 05:53:22;;;;;;;;;;;7.50;99.90;;;;;;10438146;28;20107;-62
2021/12/14 05:58:25;;;;;;;31.33;12.65;;;7.50;99.90;;;;;;10439309;28;20330;-61
2021/12/14 06:03:33;;;;;;;34.15;13.35;;;7.60;99.90;;;;;;10441454;28;20145;-61
2021/12/14 06:08:35;;;;;;;27.85;12.45;;;7.60;99.90;;;;;;10456710;28;20048;-61
2021/12/14 06:13:41;;;;;;;29.13;12.13;;;7.60;99.90;;;;;;10423603;28;20048;-62
2021/12/14 06:18:43;;;;;;;30.92;12.82;;;7.60;99.90;;;;;;10428666;28;20515;-61
2021/12/14 06:23:45;;;;;;;29.45;13.38;;;7.60;99.90;;;;;;10435325;28;20095;-61
2021/12/14 06:28:47;;;;;;;35.92;14.25;;;7.60;99.90;;;;;;10430978;28;20106;-62
2021/12/14 06:33:49;;;;;;;36.05;13.25;;;7.60;99.90;;;;;;10438636;28;20072;-62
2021/12/14 06:39:02;;;;;;;28.80;13.10;;;7.60;99.90;;;;;;10449944;28;20136;-62
2021/12/14 06:44:04;;;;;;;33.38;13.77;;;7.70;99.90;;;;;;10456632;28;20048;-61
2021/12/14 06:49:15;;;;;;;32.10;13.23;;;7.60;99.90;;;;;;10439637;28;20103;-61
2021/12/14 06:54:21;;;;;;;31.42;13.20;;;7.60;99.90;;;;;;10446595;28;20179;-61
2021/12/14 06:59:23;;;;;;;27.65;12.98;;;7.60;99.90;;;;;;10433777;28;20095;-61
2021/12/14 07:04:28;;;;;;;32.20;13.40;;;7.60;99.90;;;;;;10423295;28;20119;-61
2021/12/14 07:09:47;;;;;;;35.88;13.88;;;7.60;99.90;;;;;;10433918;28;20198;-62
2021/12/14 07:14:53;;;;;;;30.15;13.85;;;7.70;99.90;;;;;;10441060;28;20099;-61
2021/12/14 07:19:58;;;;;;;29.83;13.63;;;7.60;99.90;;;;;;10433555;28;20037;-61
2021/12/14 07:25:16;;;;;;;31.25;13.35;;;7.60;99.90;;;;;;10430995;28;20094;-61
2021/12/14 07:30:23;;;;;;;31.70;12.77;;;7.60;99.90;;;;;;10439952;28;20073;-61
2021/12/14 07:35:28;;;;;;;28.90;12.48;;;7.60;99.90;;;;;;10441416;28;20216;-61
2021/12/14 07:40:40;;;;;;;29.42;13.05;;;7.60;99.90;;;;;;10437519;28;20157;-62
2021/12/14 07:45:43;;;;;;;30.50;12.90;;;7.60;99.90;;;;;;10437904;28;20049;-62
2021/12/14 07:50:53;;;;;;;32.03;13.02;;;7.60;99.90;;;;;;10450654;28;20080;-62
2021/12/14 07:55:54;;;;;;;32.17;12.27;;;7.60;99.90;;;;;;10430109;28;20045;-61
2021/12/14 08:00:56;;;;;;;31.95;12.35;;;7.60;99.90;;;;;;10438294;28;20104;-61
2021/12/14 08:06:00;;;;;;;34.67;14.63;;;7.70;99.90;;;;;;10450343;28;20539;-62
2021/12/14 08:11:27;;;;;;;33.85;12.23;;;7.70;99.90;;;;;;10449991;28;20061;-62
2021/12/14 08:16:41;;;;;;;33.58;14.13;;;7.70;99.90;;;;;;10458710;28;20131;-62
2021/12/14 08:21:44;;;;;;;32.22;13.25;;;7.70;99.90;;;;;;10447786;28;20465;-62
2021/12/14 08:26:53;;;;;;;33.63;14.55;;;7.80;99.90;;;;;;10422018;28;20048;-61
2021/12/14 08:32:12;;;;;;;34.40;14.18;;;7.80;99.90;;;;;;10458913;28;20445;-61
2021/12/14 08:37:29;;;;;;;29.95;13.35;;;7.80;99.90;;;;;;10440420;28;20864;-61
2021/12/14 08:42:40;;;;;;;32.65;13.95;;;7.80;99.90;;;;;;10441934;28;20497;-61
2021/12/14 08:47:42;;;;;;;30.05;12.82;;;7.80;99.90;;;;;;10454337;28;20700;-61
2021/12/14 08:52:51;;;;;;;28.65;13.25;;;7.90;99.90;;;;;;10444645;28;20053;-62
2021/12/14 08:57:54;;;;;;;27.40;12.27;;;7.90;99.90;;;;;;10425368;28;20074;-61
2021/12/14 09:03:00;;;;;;;29.75;12.60;;;7.90;99.90;;;;;;10460598;28;20033;-62
2021/12/14 09:08:03;;;;;;;50.85;16.20;;;7.90;99.90;;;;;;10429843;28;20171;-62
2021/12/14 09:13:09;;;;;;;31.30;13.63;;;8.00;99.90;;;;;;10441370;28;20099;-61
2021/12/14 09:18:13;;;;;;;30.73;13.48;;;8.00;99.90;;;;;;10452834;28;20041;-61
2021/12/14 09:23:20;;;;;;;32.38;12.98;;;7.90;99.90;;;;;;10441199;28;20438;-62
2021/12/14 09:28:22;;;;;;;27.80;13.65;;;7.90;99.90;;;;;;10443048;28;20052;-62
2021/12/14 09:33:26;;;;;;;28.65;13.27;;;7.90;99.90;;;;;;10457479;28;20090;-62
2021/12/14 09:38:34;;;;;;;31.55;13.50;;;7.90;99.90;;;;;;10425932;28;20768;-63
2021/12/14 09:43:36;;;;;;;26.80;12.57;;;7.80;99.90;;;;;;10447938;28;20072;-63
2021/12/14 09:48:47;;;;;;;29.48;13.13;;;7.90;99.90;;;;;;10440524;28;20118;-62
2021/12/14 09:53:53;;;;;;;30.27;12.85;;;7.90;99.90;;;;;;10442425;28;20060;-63
2021/12/14 09:58:59;;;;;;;35.40;12.80;;;7.90;99.90;;;;;;10445823;28;20072;-63
2021/12/14 10:04:07;;;;;;;32.90;14.18;;;7.90;99.90;;;;;;10435437;28;20518;-63
2021/12/14 10:09:25;;;;;;;30.83;13.40;;;7.90;99.90;;;;;;10441480;28;20125;-64
2021/12/14 10:14:35;;;;;;;31.58;13.45;;;7.90;99.90;;;;;;10450681;28;20102;-64
2021/12/14 10:19:38;;;;;;;30.70;13.38;;;7.90;99.90;;;;;;10444375;28;20520;-63
2021/12/14 10:24:40;;;;;;;34.50;14.13;;;7.90;99.90;;;;;;10449773;28;20111;-64
2021/12/14 10:29:42;;;;;;;36.17;14.90;;;7.90;99.90;;;;;;10445600;28;20072;-63
2021/12/14 10:34:49;;;;;;;34.65;14.35;;;7.90;99.90;;;;;;10452602;28;20088;-64
2021/12/14 10:42:50;;;;;;;30.48;13.50;;;7.80;99.90;;;;;;10457829;28;20085;-65
2021/12/14 10:45:26;;;;;;;36.72;15.90;;;7.70;99.90;;;;;;10458524;28;20117;-64
2021/12/14 10:50:31;;;;;;;38.10;15.00;;;7.70;99.90;;;;;;10455157;28;20040;-64
2021/12/14 10:55:42;;;;;;;35.72;15.43;;;7.80;99.90;;;;;;10442628;28;20048;-64
2021/12/14 11:00:52;;;;;;;34.28;14.35;;;7.80;99.90;;;;;;10431012;28;20134;-63
2021/12/14 11:05:58;;;;;;;36.80;13.63;;;7.90;99.90;;;;;;10432321;28;20494;-62
2021/12/14 11:11:02;;;;;;;37.97;14.25;;;7.80;99.90;;;;;;10455285;28;20077;-62
2021/12/14 11:16:06;;;;;;;32.88;14.43;;;7.80;99.90;;;;;;10436990;28;20130;-62
2021/12/14 11:21:12;;;;;;;34.22;14.75;;;7.80;99.90;;;;;;10438545;28;20136;-62
2021/12/14 11:26:17;;;;;;;38.73;13.83;;;7.80;99.90;;;;;;10445309;28;20135;-62
2021/12/14 11:31:24;;;;;;;29.58;14.00;;;7.80;99.90;;;;;;10433758;28;20517;-62
2021/12/14 11:36:33;;;;;;;34.35;13.73;;;7.70;99.90;;;;;;10438619;28;20048;-62
2021/12/14 11:41:38;;;;;;;36.25;13.98;;;7.70;99.90;;;;;;10446777;28;20041;-62
2021/12/14 11:47:41;;;;;;;33.95;12.85;;;7.80;99.90;;;;;;10446479;28;20045;-62
2021/12/14 11:53:13;;;;;;;35.38;14.30;;;7.80;99.90;;;;;;10444735;28;20372;-62
2021/12/14 11:58:30;;;;;;;34.42;13.60;;;7.90;99.90;;;;;;10436352;28;20445;-62
2021/12/14 12:03:43;;;;;;;33.13;12.50;;;7.90;99.90;;;;;;10432522;28;20417;-62
2021/12/14 12:14:26;;;;;;;31.63;13.10;;;8.00;99.90;;;;;;10441998;28;20503;-62
2021/12/14 12:19:29;;;;;;;33.05;13.23;;;8.00;99.90;;;;;;10445719;28;20109;-62
2021/12/14 12:24:51;;;;;;;35.78;13.85;;;8.10;99.90;;;;;;10432038;28;20163;-62
2021/12/14 12:30:26;;;;;;;28.08;11.10;;;8.10;99.90;;;;;;10435493;28;20069;-63
2021/12/14 12:35:40;;;;;;;30.30;13.70;;;8.10;99.90;;;;;;10430620;28;20077;-62
2021/12/14 12:40:49;;;;;;;32.67;12.80;;;8.10;99.90;;;;;;10449117;28;20084;-62
2021/12/14 12:46:04;;;;;;;33.22;11.73;;;8.30;99.90;;;;;;10452712;28;20103;-62
2021/12/14 12:51:06;;;;;;;28.50;12.13;;;8.20;99.90;;;;;;10453227;28;20049;-62
2021/12/14 12:56:13;;;;;;;29.20;11.90;;;8.20;99.90;;;;;;10440673;28;20077;-61
2021/12/14 13:01:17;;;;;;;32.20;10.65;;;8.30;99.90;;;;;;10451546;28;20068;-61
2021/12/14 13:06:22;;;;;;;28.73;12.88;;;8.30;99.90;;;;;;10448642;28;20061;-61
2021/12/14 13:11:37;;;;;;;31.27;11.05;;;8.40;99.90;;;;;;10433557;28;20091;-62
2021/12/14 13:16:40;;;;;;;29.60;11.45;;;8.40;99.90;;;;;;10437790;28;20049;-62
2021/12/14 13:21:52;;;;;;;26.15;10.65;;;8.50;99.90;;;;;;10449530;28;20048;-62
2021/12/14 13:26:55;;;;;;;21.55;8.45;;;8.40;99.90;;;;;;10452241;28;20052;-62
2021/12/14 13:31:57;;;;;;;19.38;8.55;;;8.40;99.90;;;;;;10447770;28;20068;-62
2021/12/14 13:37:17;;;;;;;18.02;8.05;;;8.40;99.90;;;;;;10456339;28;20045;-62
2021/12/14 13:42:27;;;;;;;18.10;7.18;;;8.40;99.90;;;;;;10447001;28;20046;-61
2021/12/14 13:47:30;;;;;;;20.70;8.15;;;8.50;99.90;;;;;;10449381;28;20076;-62
2021/12/14 13:52:31;;;;;;;15.55;6.85;;;8.50;99.90;;;;;;10438739;28;20384;-62
2021/12/14 13:57:44;;;;;;;12.70;4.82;;;8.50;99.90;;;;;;10437756;28;20073;-62
2021/12/14 14:02:46;;;;;;;15.10;6.45;;;8.50;99.90;;;;;;10448362;28;20607;-62
2021/12/14 14:07:56;;;;;;;8.40;2.70;;;8.50;99.90;;;;;;10437771;28;20056;-62
2021/12/14 14:13:04;;;;;;;7.47;2.40;;;8.60;99.90;;;;;;10424163;28;20044;-62
2021/12/14 14:18:10;;;;;;;8.35;2.83;;;8.60;99.90;;;;;;10426495;28;20049;-61
2021/12/14 14:23:19;;;;;;;6.05;2.40;;;8.50;99.90;;;;;;10427523;28;20053;-61
2021/12/14 14:28:35;;;;;;;7.88;3.10;;;8.50;99.90;;;;;;10429171;28;20118;-62
2021/12/14 14:33:42;;;;;;;7.05;2.80;;;8.50;99.90;;;;;;10418984;28;20126;-65
2021/12/14 14:38:46;;;;;;;3.97;1.90;;;8.50;99.90;;;;;;10424783;28;20581;-61
2021/12/14 14:44:08;;;;;;;4.95;2.05;;;8.50;99.90;;;;;;10438559;28;20053;-62
2021/12/14 14:49:32;;;;;;;6.40;2.33;;;8.40;99.90;;;;;;10416206;28;20048;-62
2021/12/14 14:54:34;;;;;;;5.88;2.35;;;8.40;99.90;;;;;;10441333;28;20095;-65
2021/12/14 15:00:06;;;;;;;10.07;2.92;;;8.40;99.90;;;;;;10426658;28;20124;-61
2021/12/14 15:05:19;;;;;;;8.20;3.13;;;8.40;99.90;;;;;;10424561;28;20049;-61
2021/12/14 15:10:49;;;;;;;5.70;2.95;;;8.40;99.90;;;;;;10415657;28;20048;-67
2021/12/14 15:16:12;;;;;;;6.40;1.80;;;8.40;99.90;;;;;;10418293;28;20459;-63
2021/12/14 15:21:25;;;;;;;2.58;1.17;;;8.40;99.90;;;;;;10398005;28;20064;-63
2021/12/14 15:26:27;;;;;;;4.50;1.90;;;8.40;99.90;;;;;;10423647;28;20418;-62
2021/12/14 15:31:30;;;;;;;5.18;1.77;;;8.40;99.90;;;;;;10435526;28;20044;-62
2021/12/14 15:36:33;;;;;;;4.57;1.90;;;8.40;99.90;;;;;;10444005;28;20055;-62
2021/12/14 15:41:38;;;;;;;5.15;1.67;;;8.30;99.90;;;;;;10437327;28;20122;-63
2021/12/14 15:47:07;;;;;;;4.88;2.05;;;8.30;99.90;;;;;;10452223;28;20045;-62
2021/12/14 15:52:15;;;;;;;6.72;1.80;;;8.30;99.90;;;;;;10427710;28;20140;-62
2021/12/14 15:57:21;;;;;;;5.30;2.00;;;8.30;99.90;;;;;;10441330;28;20064;-62
2021/12/14 16:02:29;;;;;;;7.75;3.15;;;8.30;99.90;;;;;;10436048;28;20124;-62
2021/12/14 16:07:34;;;;;;;6.88;2.58;;;8.30;99.90;;;;;;10441671;28;20195;-61
2021/12/14 16:17:55;;;;;;;5.82;2.35;;;8.30;99.90;;;;;;10439718;28;20056;-62
2021/12/14 16:22:59;;;;;;;8.45;2.33;;;8.30;99.90;;;;;;10444068;28;20048;-62
2021/12/14 16:28:15;;;;;;;3.42;1.95;;;8.30;99.90;;;;;;10418627;28;20116;-62
2021/12/14 16:33:24;;;;;;;5.07;2.50;;;8.20;99.90;;;;;;10411995;28;20730;-62
2021/12/14 16:38:30;;;;;;;6.00;2.40;;;8.20;99.90;;;;;;10447330;28;20048;-62
2021/12/14 16:43:43;;;;;;;4.67;2.10;;;8.20;99.90;;;;;;10432810;28;20500;-62
2021/12/14 16:48:47;;;;;;;5.80;2.65;;;8.20;99.90;;;;;;10434212;28;20080;-62
2021/12/14 16:53:54;;;;;;;5.97;2.88;;;8.20;99.90;;;;;;10440795;28;20056;-63
2021/12/14 16:59:01;;;;;;;12.93;3.85;;;8.20;99.90;;;;;;10453329;28;20100;-63
2021/12/14 17:04:04;;;;;;;13.57;4.80;;;8.20;99.90;;;;;;10435661;28;20045;-62
2021/12/14 17:09:10;;;;;;;14.80;4.88;;;8.20;99.90;;;;;;10433686;28;20088;-62
2021/12/14 17:14:21;;;;;;;10.43;4.03;;;8.30;99.90;;;;;;10425194;28;20052;-62
2021/12/14 17:19:23;;;;;;;10.88;3.85;;;8.20;99.90;;;;;;10421246;28;20097;-63
2021/12/14 17:24:38;;;;;;;9.13;3.92;;;8.20;99.90;;;;;;10449964;28;20048;-62
2021/12/14 17:29:43;;;;;;;10.77;4.32;;;8.20;99.90;;;;;;10434026;28;20045;-62
2021/12/14 17:34:47;;;;;;;8.60;4.85;;;8.20;99.90;;;;;;10460593;28;20086;-62
2021/12/14 17:39:56;;;;;;;11.80;4.40;;;8.20;99.90;;;;;;10438732;28;20049;-62
2021/12/14 17:45:06;;;;;;;8.73;3.72;;;8.20;99.90;;;;;;10440036;28;20051;-62
2021/12/14 17:50:15;;;;;;;10.77;4.22;;;8.20;99.90;;;;;;10451818;28;20041;-62
2021/12/14 17:55:24;;;;;;;9.68;3.90;;;8.10;99.90;;;;;;10432430;28;20488;-61
2021/12/14 18:00:37;;;;;;;10.15;4.30;;;8.10;99.90;;;;;;10445263;28;20884;-62
2021/12/14 18:05:48;;;;;;;8.38;4.18;;;8.10;99.90;;;;;;10452683;28;20119;-62
2021/12/14 18:11:18;;;;;;;9.73;4.32;;;8.10;99.90;;;;;;10427011;28;20049;-61
2021/12/14 18:16:21;;;;;;;9.32;3.90;;;8.10;99.90;;;;;;10422216;28;20053;-62
2021/12/14 18:21:25;;;;;;;10.50;4.55;;;8.10;99.90;;;;;;10429161;28;20586;-62
2021/12/14 18:26:41;;;;;;;12.70;5.53;;;8.10;99.90;;;;;;10454359;28;20052;-63
2021/12/14 18:31:44;;;;;;;12.50;5.45;;;8.00;99.90;;;;;;10446549;28;20057;-62
2021/12/14 18:36:53;;;;;;;14.50;5.63;;;8.00;99.90;;;;;;10447653;28;20033;-63
2021/12/14 18:42:23;;;;;;;11.75;5.10;;;8.00;99.90;;;;;;10438000;28;20140;-62
2021/12/14 18:52:51;;;;;;;13.20;5.78;;;7.90;99.90;;;;;;10462294;28;20130;-62
2021/12/14 18:58:07;;;;;;;14.02;5.05;;;7.90;99.90;;;;;;10455909;28;20094;-61
2021/12/14 19:03:18;;;;;;;14.15;5.55;;;7.80;99.90;;;;;;10439043;28;20048;-61
2021/12/14 19:08:21;;;;;;;14.88;5.93;;;7.80;99.90;;;;;;10450694;28;20114;-61
2021/12/14 19:13:33;;;;;;;16.02;6.63;;;7.70;99.90;;;;;;10444850;28;20495;-61
2021/12/14 19:18:38;;;;;;;19.13;8.48;;;7.70;99.90;;;;;;10455282;28;20054;-61
2021/12/14 19:23:48;;;;;;;24.85;9.13;;;7.60;99.90;;;;;;10421275;28;20388;-61
2021/12/14 19:29:08;;;;;;;17.10;7.35;;;7.50;99.90;;;;;;10450947;28;20048;-62
2021/12/14 19:34:10;;;;;;;25.83;10.00;;;7.40;99.90;;;;;;10427270;28;20094;-60
2021/12/14 19:39:13;;;;;;;21.40;8.70;;;7.30;99.90;;;;;;10446292;28;20103;-60
2021/12/14 19:44:19;;;;;;;20.15;8.77;;;7.30;99.90;;;;;;10430746;28;20084;-61
2021/12/14 19:49:26;;;;;;;22.60;9.45;;;7.20;99.90;;;;;;10430873;28;20495;-61
2021/12/14 19:54:31;;;;;;;;;;;7.10;99.90;;;;;;10435672;28;20072;-62
2021/12/14 19:59:43;;;;;;;21.13;9.10;;;7.00;99.90;;;;;;10452479;28;19932;-62
2021/12/14 20:04:45;;;;;;;26.55;8.95;;;6.90;99.90;;;;;;10442681;28;20041;-60
2021/12/14 20:09:51;;;;;;;25.92;9.73;;;6.80;99.90;;;;;;10444552;28;20052;-61
2021/12/14 20:15:05;;;;;;;25.38;9.00;;;6.70;99.90;;;;;;10438331;28;20080;-61
2021/12/14 20:20:22;;;;;;;27.02;11.55;;;6.60;99.90;;;;;;10441472;28;20118;-61
2021/12/14 20:25:32;;;;;;;26.35;10.38;;;6.50;99.90;;;;;;10440443;28;20079;-61
2021/12/14 20:30:45;;;;;;;27.48;10.27;;;6.50;99.90;;;;;;10431578;28;20056;-61
2021/12/14 20:35:51;;;;;;;27.45;10.30;;;6.40;99.90;;;;;;10435284;28;20136;-61
2021/12/14 20:40:54;;;;;;;31.80;10.55;;;6.40;99.90;;;;;;10453182;28;20118;-61
2021/12/14 20:45:59;;;;;;;28.95;10.27;;;6.30;99.90;;;;;;10448775;28;20057;-61
2021/12/14 20:51:16;;;;;;;32.50;11.05;;;6.30;99.90;;;;;;10446560;28;20057;-61
2021/12/14 20:56:18;;;;;;;34.70;11.80;;;6.20;99.90;;;;;;10455525;28;20049;-61
2021/12/14 21:01:25;;;;;;;31.83;12.13;;;6.20;99.90;;;;;;10444371;28;20048;-61
2021/12/14 21:06:31;;;;;;;33.60;12.20;;;6.10;99.90;;;;;;10443291;28;20049;-62
2021/12/14 21:11:39;;;;;;;28.58;12.23;;;6.10;99.90;;;;;;10435329;28;20450;-62
2021/12/14 21:16:46;;;;;;;34.63;12.68;;;6.00;99.90;;;;;;10451308;28;20479;-62
2021/12/14 21:21:50;;;;;;;41.28;13.48;;;6.00;99.90;;;;;;10443698;28;20047;-61
2021/12/14 21:26:52;;;;;;;37.85;14.00;;;6.00;99.90;;;;;;10438881;28;20053;-62
2021/12/14 21:31:55;;;;;;;34.67;13.52;;;6.00;99.90;;;;;;10461297;28;20094;-61
2021/12/14 21:42:32;;;;;;;22.80;10.30;;;6.10;99.90;;;;;;10982135;23;20043;-61
2021/12/14 21:47:33;;;;;;;30.90;14.73;;;6.10;99.90;;;;;;10300278;28;20070;-61
2021/12/14 21:52:38;;;;;;;32.13;14.07;;;6.10;99.90;;;;;;10312164;28;20690;-61
2021/12/14 21:57:50;;;;;;;32.17;12.77;;;6.10;99.90;;;;;;10301045;28;20566;-66
2021/12/14 22:02:56;;;;;;;38.78;12.02;;;6.20;99.90;;;;;;10319635;28;20070;-61
2021/12/14 22:07:59;;;;;;;38.00;12.48;;;6.30;99.90;;;;;;10294976;28;20046;-61
2021/12/14 22:13:03;;;;;;;40.78;15.07;;;6.30;99.90;;;;;;10306806;28;20112;-62
2021/12/14 22:18:04;;;;;;;49.03;13.55;;;6.30;99.90;;;;;;10297109;28;20535;-61
2021/12/14 22:23:06;;;;;;;36.00;11.73;;;6.40;99.90;;;;;;10311127;28;20074;-61
2021/12/14 22:28:08;;;;;;;38.92;13.13;;;6.40;99.90;;;;;;10310279;28;20116;-62
2021/12/14 22:33:12;;;;;;;34.13;11.85;;;6.50;99.90;;;;;;10314146;28;20117;-61
2021/12/14 22:38:15;;;;;;;35.13;11.85;;;6.50;99.90;;;;;;10328657;28;20150;-62
2021/12/14 22:48:20;;;;;;;38.17;11.55;;;6.50;99.90;;;;;;10310318;28;20135;-61
2021/12/14 22:53:22;;;;;;;37.10;12.38;;;6.50;99.90;;;;;;10293129;28;20078;-61
2021/12/14 22:58:28;;;;;;;31.13;11.55;;;6.60;99.90;;;;;;10290022;28;20572;-62
2021/12/14 23:03:30;;;;;;;31.52;11.65;;;6.50;99.90;;;;;;10304181;28;20570;-62
2021/12/14 23:08:32;;;;;;;36.03;12.00;;;6.50;99.90;;;;;;10296181;28;20120;-61
2021/12/14 23:13:38;;;;;;;33.13;12.95;;;6.50;99.90;;;;;;10306424;28;20133;-61
2021/12/14 23:19:00;;;;;;;35.45;11.88;;;6.50;99.90;;;;;;10318584;28;20132;-62
2021/12/14 23:24:02;;;;;;;38.35;11.57;;;6.50;99.90;;;;;;10319709;28;20054;-62
2021/12/14 23:29:04;;;;;;;37.72;11.90;;;6.50;99.90;;;;;;10308695;28;20492;-61
2021/12/14 23:34:06;;;;;;;42.85;12.38;;;6.50;99.90;;;;;;10306471;28;20051;-63
2021/12/14 23:39:09;;;;;;;38.72;11.20;;;6.50;99.90;;;;;;10305322;28;20518;-61
2021/12/14 23:44:27;;;;;;;51.10;13.35;;;6.50;99.90;;;;;;10301052;28;20077;-61
2021/12/14 23:49:29;;;;;;;42.13;12.32;;;6.40;99.90;;;;;;10304425;28;20518;-60
2021/12/14 23:54:31;;;;;;;47.08;12.35;;;6.40;99.90;;;;;;10303405;28;20133;-61
2021/12/14 23:59:33;;;;;;;49.35;13.88;;;6.40;99.90;;;;;;10307005;28;20077;-61
